Last 30 Days

Upper Lake

Daily Data | America/Los_Angeles
as of 5/18/21 3:49 PM PDT
Date Daily Max Temp (°F) Time of Max Temp Daily Min Temp (°F) Time of Min Temp Daily Rain (In) Monthly Rain (In) Seasonal Rainfall (In) Wind Spd (mph) Daily Max Wind (mph) Time of Max Wind Max Wind Dir (°) Dew Pt (°F) Max RH (%) Min RH (%) Hrs <= 32F (hrs) Hrs <= 28F (hrs) Daily Leaf Wet Hrs (hrs) Degree Hrs (hrs) Hrs 70-85F (hrs) Hrs > 95F (hrs) Powdery Mildew Stress (pts) Storm Total (In) Daily Max Rain Intensity (In/Hr) Time of Max Rain Intensity Max 1 Min Rain (In) Max 1 Min Rain Time Max 15 Min Rain (In) Max 15 Min Precip Time Max 60 Min Rain (In) Max 60 Min Rain Time Bat Volt Min Day (V)
5/17/21 77.0 1456 45.8 0610 0.00 0.24 13.14 6.2 24.3 1546 NNW | 327 46.8 100 28 0.0 0.0 2.3 67.9 6.74 0.00 100 - - - - - - - - - 12.4
5/16/21 83.4 1447 47.7 0556 0.00 0.24 13.14 3.3 18.8 1900 WNW | 283 51.0 100 25 0.0 0.0 6.1 129.4 9.96 0.00 80 - - - - - - - - - 12.3
5/15/21 80.8 1434 43.3 0558 0.24 0.24 13.14 2.6 30.6 1506 WNW | 289 51.8 100 25 0.0 0.0 3.3 54.5 4.50 0.00 90 0.24 1.12 1512 0.02 1509 0.16 1522 0.24 1559 12.3
5/14/21 82.5 1355 45.0 0601 0.00 0.00 12.90 5.5 27.3 1850 NW | 322 45.4 100 18 0.0 0.0 0.7 121.4 9.22 0.00 70 - - - - - - - - - 12.4
5/13/21 89.5 1436 43.6 0559 0.00 0.00 12.90 2.9 17.8 1724 W | 274 43.8 99 10 0.0 0.0 0.0 199.7 3.51 0.00 80 - - - - - - - - - 12.4
5/12/21 89.1 1605 42.6 0549 0.00 0.00 12.90 2.8 19.1 1725 NW | 323 41.3 97 8 0.0 0.0 0.0 196.5 3.56 0.00 90 - - - - - - - - - 12.3
5/11/21 88.9 1625 40.9 0544 0.00 0.00 12.90 2.7 21.7 1750 NW | 326 38.3 100 9 0.0 0.0 0.8 179.5 4.28 0.00 100 - - - - - - - - - 12.4
5/10/21 86.3 1759 39.7 0610 0.00 0.00 12.90 3.0 15.2 1836 NW | 315 38.3 100 7 0.0 0.0 2.7 158.5 7.41 0.00 100 - - - - - - - - - 12.4
5/9/21 77.5 1332 43.8 0631 0.00 0.00 12.90 7.1 25.9 1057 W | 269 40.1 90 18 0.0 0.0 0.0 77.0 7.45 0.00 90 - - - - - - - - - 12.4
5/8/21 80.8 1503 36.9 0605 0.00 0.00 12.90 5.3 25.9 1903 NW | 322 37.1 100 12 0.0 0.0 3.2 114.6 9.29 0.00 70 - - - - - - - - - 12.4
5/7/21 69.6 1440 44.5 0651 0.00 0.00 12.90 8.0 23.8 1614 W | 279 38.8 90 25 0.0 0.0 0.0 18.9 0.00 0.00 80 - - - - - - - - - 12.4
5/6/21 71.9 1357 43.4 0540 0.00 0.00 12.90 7.3 25.2 1903 WNW | 296 41.8 93 23 0.0 0.0 0.0 33.0 2.84 0.00 90 - - - - - - - - - 12.4
5/5/21 88.1 1543 43.5 0618 0.00 0.00 12.90 3.2 18.6 0026 NW | 313 43.5 100 11 0.0 0.0 5.3 183.0 4.34 0.00 100 - - - - - - - - - 12.4
5/4/21 80.6 1530 44.8 0639 0.00 0.00 12.90 4.7 21.9 0358 W | 280 45.6 98 25 0.0 0.0 0.0 118.6 9.53 0.00 80 - - - - - - - - - 12.4
5/3/21 80.2 1523 41.2 0617 0.00 0.00 12.90 4.7 20.8 1759 NW | 308 42.9 100 19 0.0 0.0 3.0 103.4 8.83 0.00 60 - - - - - - - - - 12.4
5/2/21 72.5 1434 46.7 0626 0.00 0.00 12.90 8.7 25.2 0533 WNW | 292 42.0 96 29 0.0 0.0 0.0 37.2 4.31 0.00 70 - - - - - - - - - 12.4
5/1/21 72.0 1416 48.8 0458 0.00 0.00 12.90 10.6 29.6 2058 NNW | 334 46.0 88 44 0.0 0.0 0.0 32.7 3.42 0.00 80 - - - - - - - - - 12.3
4/30/21 83.6 1450 41.2 0557 0.00 0.10 12.90 4.2 25.4 2333 WNW | 293 42.9 100 9 0.0 0.0 0.0 112.9 8.58 0.00 60 - - - - - - - - - 12.3
4/29/21 86.5 1551 38.2 0638 0.00 0.10 12.90 2.9 21.4 1828 NW | 322 39.4 100 9 0.0 0.0 1.4 148.6 4.61 0.00 70 - - - - - - - - - 12.3
4/28/21 82.1 1620 35.1 0625 0.00 0.10 12.90 3.4 25.2 1845 WNW | 300 36.5 100 13 0.0 0.0 4.1 107.5 8.96 0.00 50 - - - - - - - - - 12.3
4/27/21 71.4 1606 33.3 0613 0.00 0.10 12.90 3.8 21.3 1804 WNW | 288 36.9 100 18 0.0 0.0 6.5 24.7 1.92 0.00 60 - - - - - - - - - 12.3
4/26/21 60.9 1426 31.4 0638 0.00 0.10 12.90 4.8 23.2 1558 NW | 325 36.0 100 30 0.4 0.0 6.1 0.0 0.00 0.00 70 - - - - - - - - - 12.2
4/25/21 54.8 1631 36.0 0038 0.10 0.10 12.90 3.5 20.1 1638 WNW | 292 40.2 100 43 0.0 0.0 5.7 0.0 0.00 0.00 80 0.10 1.80 1250 0.03 1251 0.08 1258 0.08 1258 12.4
4/24/21 60.9 1410 44.7 0059 0.00 0.00 12.80 5.4 27.2 1429 NNW | 327 37.5 80 33 0.0 0.0 0.0 0.0 0.00 0.00 90 - - - - - - - - - 12.3
4/23/21 75.5 1434 39.0 0544 0.00 0.00 12.80 4.6 25.9 1730 NW | 317 37.7 100 13 0.0 0.0 0.5 39.6 4.08 0.00 100 - - - - - - - - - 12.3
4/22/21 76.4 1434 38.7 0615 0.00 0.00 12.80 4.0 19.6 1535 NW | 311 40.7 100 17 0.0 0.0 3.7 71.8 7.58 0.00 100 - - - - - - - - - 12.3
4/21/21 78.2 1535 38.5 0627 0.00 0.00 12.80 3.5 16.7 1810 NW | 308 38.3 100 11 0.0 0.0 2.0 74.4 7.45 0.00 80 - - - - - - - - - 12.4
4/20/21 70.1 1700 43.5 0716 0.00 0.00 12.80 8.9 25.5 1545 NW | 320 39.5 92 28 0.0 0.0 0.0 9.4 0.01 0.00 90 - - - - - - - - - 12.3
4/19/21 79.0 1424 38.2 0648 0.00 0.00 12.80 6.7 24.4 1615 NW | 309 37.1 100 19 0.0 0.0 0.0 83.9 8.32 0.00 70 - - - - - - - - - 12.3
4/18/21 82.7 1423 35.7 0634 0.00 0.00 12.80 4.3 22.8 1704 NNW | 330 32.5 98 8 0.0 0.0 0.0 125.2 9.53 0.00 50 - - - - - - - - - 12.3
Max 89.5 - 48.8 - 0.24 0.24 - 10.6 30.6 - - 51.8 100 44 0.4 0.0 6.5 199.7 9.96 0.00 - 0.24 1.80 - 0.03 - 0.16 - 0.24 - 12.4
Avg - - - - - 0.04 - 5.0 - - - 41.0 - - 0.0 0.0 - - 5.34 0.00 - 0.17 - - - - - - - - -
Min 54.8 - 31.4 - 0.00 0.00 - 2.6 15.2 - - 32.5 80 7 0.0 0.0 0.0 0.0 0.00 0.00 - 0.10 1.12 - 0.02 - 0.08 - 0.08 - 12.2
Total - - - - - - - - - - - - - - 0.4 0.0 - - 160.22 0.00 - - - - - - - - - - -